Time;durP1;ratioP1;P1;durP2;ratioP2;P2;SDS_P1;SDS_P2;PMS_P1;PMS_P2;Temp;Humidity;BMP_temperature;BMP_pressure;BME280_temperature;BME280_humidity;BME280_pressure;Samples;Min_cycle;Max_cycle;Signal;HPM_P1;HPM_P2
2022/06/18 14:52:59;;;;;;;18.63;9.60;;;48.70;20.90;;;39.01;17.78;95572.13;5049022;28;20388;-48
2022/06/18 14:56:13;;;;;;;27.80;10.35;;;48.70;18.80;;;38.35;18.77;95560.00;5028684;28;20036;-49
2022/06/18 14:59:24;;;;;;;24.33;8.60;;;49.60;17.90;;;38.10;18.06;95558.81;5028475;28;20487;-50
2022/06/18 15:02:46;;;;;;;19.35;9.32;;;50.10;16.80;;;37.44;18.66;95544.47;5004685;28;20025;-48
2022/06/18 15:05:31;;;;;;;25.10;10.38;;;50.50;16.20;;;37.80;18.01;95543.44;5004201;28;20110;-49
2022/06/18 15:08:17;;;;;;;25.02;9.70;;;50.70;15.70;;;38.51;19.48;95539.66;5004325;28;20025;-49
2022/06/18 15:11:03;;;;;;;27.00;9.75;;;50.90;15.50;;;37.17;18.68;95531.00;5001446;28;20038;-51
2022/06/18 15:13:39;;;;;;;25.75;8.88;;;51.00;15.10;;;37.08;19.24;95530.06;5013675;28;20022;-54
2022/06/18 15:16:26;;;;;;;21.58;8.63;;;51.00;14.80;;;36.56;20.19;95526.25;5007681;28;20395;-54
2022/06/18 15:21:54;;;;;;;21.45;9.55;;;51.40;14.70;;;38.04;18.43;95518.88;5019369;28;20022;-56
2022/06/18 15:27:32;;;;;;;21.70;9.57;;;52.10;14.40;;;38.50;17.92;95507.50;5007793;28;20076;-54
2022/06/18 15:30:24;;;;;;;27.30;11.13;;;52.80;14.20;;;38.45;17.87;95500.50;5023516;28;20025;-54
2022/06/18 15:33:12;;;;;;;27.83;11.13;;;53.20;13.80;;;38.34;17.99;95500.84;5009718;28;20028;-58
2022/06/18 15:35:44;;;;;;;19.23;10.68;;;53.70;13.60;;;38.50;17.75;95497.16;5008312;28;20017;-57
2022/06/18 15:38:35;;;;;;;19.83;11.52;;;54.00;13.20;;;38.82;18.16;95503.59;5023663;28;20068;-57
2022/06/18 15:41:11;;;;;;;21.25;12.18;;;54.20;13.20;;;38.96;18.15;95497.56;5007229;28;20025;-57
2022/06/18 15:43:51;;;;;;;24.27;11.95;;;54.40;13.10;;;38.55;17.68;95491.03;4975699;28;26799;-58
2022/06/18 15:46:26;;;;;;;;;;;54.60;13.00;;;38.74;18.33;95503.09;5007576;28;20022;-56
2022/06/18 15:49:26;;;;;;;20.98;12.13;;;54.50;13.10;;;38.64;17.74;95493.09;5008368;28;19978;-54
2022/06/18 15:51:55;;;;;;;21.90;12.15;;;54.60;13.00;;;37.84;18.37;95496.88;4994510;28;20448;-58
2022/06/18 15:54:50;;;;;;;19.58;10.65;;;54.40;12.70;;;38.09;18.03;95486.97;5001397;28;20030;-57
2022/06/18 15:57:23;;;;;;;20.20;10.98;;;54.20;12.80;;;38.09;18.89;95490.53;4988675;28;20034;-57
2022/06/18 16:00:27;;;;;;;26.50;11.25;;;54.10;12.80;;;38.00;19.33;95476.53;4958846;28;20038;-54
2022/06/18 16:02:55;;;;;;;22.55;9.95;;;54.00;12.90;;;38.06;20.35;95477.53;4986626;28;20026;-57
2022/06/18 16:05:34;;;;;;;20.02;10.40;;;53.90;13.00;;;37.86;18.61;95474.16;4985889;28;20169;-58
2022/06/18 16:08:07;;;;;;;24.63;10.68;;;53.90;12.90;;;37.33;18.46;95471.81;4977238;28;20038;-57
2022/06/18 16:10:41;;;;;;;20.85;8.77;;;53.80;12.60;;;36.98;19.41;95471.66;4988589;28;20049;-55
2022/06/18 16:13:32;;;;;;;16.02;9.82;;;53.50;12.50;;;36.96;20.07;95470.50;4974119;28;20037;-57
2022/06/18 16:16:02;;;;;;;26.05;9.57;;;53.40;12.80;;;37.56;19.41;95469.97;4973875;28;20461;-51
2022/06/18 16:18:38;;;;;;;16.70;8.43;;;53.30;13.00;;;37.23;20.15;95457.03;4987083;28;20024;-52
2022/06/18 16:21:11;;;;;;;19.15;8.55;;;53.10;13.00;;;37.40;19.68;95459.72;4955449;28;20064;-55
2022/06/18 16:23:50;;;;;;;19.45;9.07;;;53.10;13.20;;;36.16;20.63;95450.81;4984129;28;20022;-52
2022/06/18 16:26:30;;;;;;;23.27;8.10;;;52.80;13.00;;;36.62;21.82;95446.06;4969513;28;20046;-54
2022/06/18 16:28:58;;;;;;;17.67;7.85;;;52.60;13.30;;;36.99;21.31;95444.66;4984262;28;20017;-54
2022/06/18 16:31:39;;;;;;;24.05;9.02;;;52.40;13.40;;;36.65;21.30;95434.09;4922165;28;118573;-55
2022/06/18 16:34:12;;;;;;;24.48;9.80;;;52.30;13.50;;;36.70;21.48;95434.34;4978893;28;20021;-53
2022/06/18 16:37:30;;;;;;;20.63;7.30;;;52.20;13.60;;;36.48;21.52;95436.09;4984576;28;20022;-58
2022/06/18 16:40:16;;;;;;;21.38;9.02;;;52.00;13.80;;;36.14;22.13;95420.78;4971065;28;20030;-53
2022/06/18 16:42:52;;;;;;;21.50;7.45;;;51.70;13.80;;;36.62;22.01;95410.78;4971641;28;20034;-56
2022/06/18 16:45:18;;;;;;;27.35;7.93;;;51.60;13.90;;;36.48;22.32;95408.38;4972608;28;20049;-52
2022/06/18 16:48:01;;;;;;;18.92;7.70;;;51.50;14.00;;;35.91;22.36;95403.09;4987369;28;20057;-54
2022/06/18 16:50:33;;;;;;;21.55;7.15;;;51.40;14.20;;;35.49;22.14;95399.34;4981737;28;20057;-54
2022/06/18 16:53:32;;;;;;;20.15;7.70;;;51.30;14.10;;;35.37;21.86;95392.50;4991768;28;20056;-52
2022/06/18 16:56:02;;;;;;;17.25;6.32;;;51.00;14.00;;;35.84;23.03;95396.94;4980068;28;20093;-57
2022/06/18 16:58:32;;;;;;;16.40;6.63;;;51.00;14.20;;;35.71;22.49;95393.31;4997055;28;20026;-56
2022/06/18 17:00:58;;;;;;;28.50;8.00;;;50.90;14.20;;;35.54;22.43;95381.44;4969782;28;20121;-50
2022/06/18 17:03:24;;;;;;;18.88;8.55;;;50.70;14.10;;;35.06;22.97;95377.41;4985638;28;20018;-51
2022/06/18 17:05:57;;;;;;;27.08;6.63;;;50.60;14.30;;;35.02;23.11;95382.97;4976914;28;20112;-54
2022/06/18 17:08:26;;;;;;;23.60;6.93;;;50.30;14.20;;;35.17;22.61;95383.47;4966890;28;20026;-53
2022/06/18 17:10:58;;;;;;;22.17;6.35;;;50.10;14.30;;;35.41;22.99;95389.63;5001269;28;20028;-54
2022/06/18 17:13:37;;;;;;;18.10;5.25;;;49.80;14.30;;;34.63;23.00;95387.38;4970684;28;20026;-49
2022/06/18 17:16:06;;;;;;;20.88;5.22;;;49.10;14.50;;;34.54;23.50;95385.16;4974145;28;20026;-53
2022/06/18 17:18:52;;;;;;;22.23;5.18;;;47.40;15.20;;;34.56;24.46;95384.72;4989026;28;20121;-52
2022/06/18 17:21:24;;;;;;;22.55;4.28;;;45.40;16.30;;;34.37;24.59;95383.47;4990048;28;20022;-50
2022/06/18 17:32:13;;;;;;;29.58;4.88;;;40.50;19.30;;;32.40;26.10;95369.81;4990066;28;20036;-49
2022/06/18 17:34:47;;;;;;;22.88;4.53;;;39.60;19.70;;;32.03;26.78;95370.66;4991507;28;20109;-51
2022/06/18 17:37:15;;;;;;;27.45;4.60;;;38.90;20.10;;;31.93;27.30;95364.03;4992952;28;20404;-52
2022/06/18 17:39:42;;;;;;;13.80;3.80;;;38.30;20.60;;;31.80;27.95;95362.94;4991636;28;20036;-52
2022/06/18 17:42:08;;;;;;;19.35;3.85;;;37.80;21.20;;;31.34;27.86;95367.66;4991916;28;20053;-50
2022/06/18 17:44:35;;;;;;;23.98;3.88;;;37.30;21.50;;;31.18;28.04;95363.81;5007708;28;20060;-51
2022/06/18 17:47:06;;;;;;;22.58;4.70;;;36.90;21.80;;;31.03;28.83;95366.66;4992645;28;20064;-54
2022/06/18 17:49:34;;;;;;;19.55;4.10;;;36.50;22.20;;;31.05;29.14;95369.78;4992684;28;20026;-51
2022/06/18 17:52:09;;;;;;;20.33;4.22;;;36.10;22.60;;;30.87;29.85;95361.66;4992513;28;20128;-50
2022/06/18 17:54:36;;;;;;;17.35;4.82;;;35.80;22.90;;;30.83;32.15;95362.84;4991275;28;20024;-50
2022/06/18 17:57:12;;;;;;;16.95;3.58;;;35.50;23.60;;;30.61;31.63;95351.91;4991679;28;20389;-49
2022/06/18 17:59:38;;;;;;;21.60;3.40;;;35.20;24.40;;;30.25;31.40;95356.00;4981456;28;20029;-49
2022/06/18 18:02:23;;;;;;;20.23;3.65;;;34.90;24.40;;;30.03;30.78;95345.06;4985300;28;20025;-50
2022/06/18 18:04:56;;;;;;;27.30;4.55;;;34.70;25.10;;;29.82;30.81;95343.13;4991319;28;20109;-50
2022/06/18 18:07:28;;;;;;;20.40;4.20;;;34.40;24.90;;;29.86;31.95;95338.41;4991664;28;20514;-51
2022/06/18 18:09:57;;;;;;;15.68;3.70;;;34.20;25.30;;;29.76;31.55;95341.19;4974699;28;20022;-50
2022/06/18 18:12:29;;;;;;;17.13;4.13;;;34.00;25.40;;;29.59;31.82;95343.53;4991004;28;20120;-52
2022/06/18 18:15:07;;;;;;;18.08;4.28;;;33.80;25.70;;;29.42;32.53;95341.56;4992089;28;20548;-48
2022/06/18 18:17:37;;;;;;;21.90;3.63;;;33.60;25.90;;;29.31;31.85;95336.09;4986051;28;20034;-53
2022/06/18 18:20:05;;;;;;;17.27;3.58;;;33.40;26.00;;;29.26;33.33;95339.19;4978167;28;20052;-51
2022/06/18 18:22:36;;;;;;;13.93;3.40;;;33.30;26.30;;;29.14;32.56;95325.88;4986521;28;20482;-49
2022/06/18 18:25:03;;;;;;;17.48;3.60;;;33.10;26.40;;;29.04;33.35;95332.91;4984557;28;20041;-51
2022/06/18 18:27:33;;;;;;;15.10;3.20;;;33.00;26.60;;;28.96;33.62;95321.13;4990412;28;20113;-54
2022/06/18 18:30:00;;;;;;;22.55;4.05;;;32.90;26.90;;;28.94;33.23;95323.47;4991450;28;20052;-52
2022/06/18 18:32:28;;;;;;;15.90;4.93;;;32.80;27.00;;;28.78;34.56;95323.84;4990998;28;20061;-51
2022/06/18 18:34:54;;;;;;;23.58;5.53;;;32.60;27.30;;;28.63;34.55;95326.94;4991782;28;20126;-49
2022/06/18 18:37:25;;;;;;;13.38;3.53;;;32.50;27.50;;;28.46;35.45;95320.25;4992071;28;20169;-51
2022/06/18 18:39:52;;;;;;;15.33;2.67;;;32.40;27.80;;;28.27;35.22;95319.34;4989512;28;20071;-54
2022/06/18 18:42:19;;;;;;;18.25;3.90;;;32.20;27.90;;;28.24;35.03;95313.88;4965739;28;20030;-51
2022/06/18 18:44:46;;;;;;;19.35;3.55;;;32.10;28.00;;;28.21;35.01;95306.44;4954769;28;20018;-52
2022/06/18 18:47:13;;;;;;;18.30;3.67;;;31.90;28.20;;;28.19;35.34;95315.00;4987048;28;20033;-47
2022/06/18 18:49:42;;;;;;;19.35;3.55;;;31.90;28.40;;;28.19;35.01;95320.47;4972259;28;20076;-54
2022/06/18 18:52:12;;;;;;;20.25;4.00;;;31.70;28.60;;;28.17;35.55;95313.81;4971155;28;20046;-49
2022/06/18 18:54:41;;;;;;;11.85;3.47;;;31.60;28.80;;;28.08;36.42;95319.63;4972654;28;20409;-51
2022/06/18 18:57:09;;;;;;;14.45;3.65;;;31.60;29.00;;;27.97;35.40;95327.81;4938180;28;22465;-52
2022/06/18 18:59:37;;;;;;;22.25;4.28;;;31.40;29.00;;;27.85;37.27;95320.69;4967198;28;20018;-54
2022/06/18 19:02:12;;;;;;;11.57;3.63;;;31.30;29.40;;;27.68;37.65;95326.84;4971078;28;20034;-53
2022/06/18 19:04:41;;;;;;;19.40;3.33;;;31.10;29.90;;;27.44;39.35;95326.25;4987334;28;20484;-53
2022/06/18 19:07:07;;;;;;;12.73;3.03;;;31.00;30.00;;;27.20;39.71;95329.59;4971254;28;20049;-52
2022/06/18 19:09:33;;;;;;;14.55;2.72;;;30.80;30.30;;;27.00;40.47;95324.31;4971223;28;20445;-52
2022/06/18 19:14:53;;;;;;;17.80;3.80;;;30.40;31.30;;;26.58;41.74;95324.69;4984250;28;20388;-50
2022/06/18 19:17:22;;;;;;;14.68;4.03;;;30.20;31.90;;;26.42;41.44;95324.88;4970003;28;20056;-53
2022/06/18 19:19:49;;;;;;;14.50;3.00;;;29.90;32.20;;;26.22;42.65;95324.22;4986575;28;20022;-50
2022/06/18 19:22:15;;;;;;;15.45;3.20;;;29.80;32.60;;;26.07;42.24;95322.47;4970095;28;20022;-52
2022/06/18 19:24:44;;;;;;;15.50;3.60;;;29.50;32.80;;;25.92;42.31;95326.97;4970023;28;20121;-50
2022/06/18 19:27:11;;;;;;;15.18;3.40;;;29.40;33.30;;;25.78;43.57;95319.34;4970955;28;20030;-56
2022/06/18 19:29:37;;;;;;;9.80;3.13;;;29.20;33.60;;;25.60;44.43;95312.84;4971230;28;20030;-55
2022/06/18 19:32:07;;;;;;;14.82;3.25;;;29.10;34.10;;;25.40;45.14;95320.34;4985860;28;20104;-48
2022/06/18 19:34:39;;;;;;;11.18;3.03;;;28.90;35.40;;;25.19;46.00;95323.50;4986217;28;20030;-52
2022/06/18 19:37:05;;;;;;;11.10;3.35;;;28.70;35.20;;;25.01;45.89;95316.94;4983434;28;20022;-53
2022/06/18 19:39:38;;;;;;;17.35;3.83;;;28.50;35.30;;;24.83;46.13;95313.94;4986555;28;20516;-54
2022/06/18 19:42:08;;;;;;;14.00;2.97;;;28.30;35.80;;;24.65;47.18;95308.94;4986526;28;20057;-51
2022/06/18 19:44:35;;;;;;;18.63;3.28;;;28.20;36.10;;;24.53;47.82;95306.38;4987533;28;20026;-52
2022/06/18 19:47:03;;;;;;;11.77;3.75;;;28.00;36.40;;;24.42;48.45;95310.84;4989642;28;20536;-52
2022/06/18 19:49:29;;;;;;;12.88;3.92;;;27.90;37.60;;;24.30;48.78;95316.41;4973201;28;20477;-52
2022/06/18 19:51:58;;;;;;;12.52;4.00;;;27.70;37.30;;;24.15;48.79;95315.34;4989448;28;20386;-50
2022/06/18 19:54:31;;;;;;;15.40;3.60;;;27.60;37.60;;;23.94;49.89;95321.09;4974623;28;20488;-50
2022/06/18 19:56:58;;;;;;;11.82;3.67;;;27.40;38.30;;;23.84;49.95;95322.47;4973195;28;20062;-53
2022/06/18 19:59:25;;;;;;;11.57;3.42;;;27.30;38.30;;;23.70;50.49;95322.94;4984754;28;20084;-54
2022/06/18 20:01:52;;;;;;;13.10;3.13;;;27.20;38.80;;;23.59;50.59;95324.59;4999704;28;20424;-54
2022/06/18 20:04:22;;;;;;;20.95;4.43;;;27.00;39.00;;;23.47;51.69;95320.09;4976131;28;20388;-48
2022/06/18 20:06:51;;;;;;;11.10;3.60;;;26.90;39.60;;;23.32;52.07;95323.59;4992667;28;20033;-55
2022/06/18 20:09:20;;;;;;;16.90;3.85;;;26.80;40.00;;;23.18;52.81;95326.75;4993421;28;20030;-50
2022/06/18 20:11:46;;;;;;;13.95;3.33;;;26.60;40.30;;;23.01;53.23;95322.47;4992285;28;20408;-51
2022/06/18 20:14:15;;;;;;;9.02;3.53;;;26.50;40.50;;;22.87;53.96;95317.44;5008490;28;20018;-52
2022/06/18 20:16:41;;;;;;;13.55;3.58;;;26.40;41.10;;;22.76;54.50;95313.66;4993640;28;20036;-51
2022/06/18 20:19:07;;;;;;;13.57;3.65;;;26.20;41.30;;;22.65;54.86;95309.88;4992038;28;20409;-54
2022/06/18 20:21:33;;;;;;;13.60;3.95;;;26.10;41.70;;;22.54;55.20;95314.25;4992518;28;20088;-50
2022/06/18 20:24:04;;;;;;;13.48;3.60;;;26.00;42.00;;;22.43;55.68;95315.88;4934931;28;20033;-50
2022/06/18 20:26:33;;;;;;;16.83;3.88;;;25.90;42.60;;;22.37;55.30;95312.63;4973914;28;20473;-52
2022/06/18 20:28:59;;;;;;;9.63;2.90;;;25.80;42.50;;;22.29;55.67;95311.66;4974980;28;20030;-52
2022/06/18 20:31:26;;;;;;;15.80;3.00;;;25.70;42.70;;;22.23;55.33;95315.75;4949533;28;26879;-51
2022/06/18 20:33:53;;;;;;;13.88;3.30;;;25.60;42.90;;;22.20;54.90;95316.44;4896194;28;20036;-48
2022/06/18 20:36:23;;;;;;;14.38;4.03;;;25.60;43.00;;;22.18;54.96;95318.69;4973514;28;20156;-46
2022/06/18 20:38:53;;;;;;;12.02;3.70;;;25.50;43.20;;;22.14;55.16;95310.44;4974547;28;20014;-50
2022/06/18 20:41:24;;;;;;;11.93;3.17;;;25.50;43.30;;;22.11;55.15;95307.63;4973459;28;20022;-52
2022/06/18 20:44:00;;;;;;;16.25;3.53;;;25.40;43.50;;;22.09;55.55;95307.97;4989554;28;20030;-51
2022/06/18 20:46:35;;;;;;;12.82;3.83;;;25.40;43.70;;;22.07;55.26;95306.75;4973376;28;20033;-52
2022/06/18 20:49:01;;;;;;;13.20;3.53;;;25.30;43.80;;;22.03;56.36;95309.34;4968847;28;20038;-49
2022/06/18 20:51:35;;;;;;;14.85;3.58;;;25.30;43.80;;;21.99;56.95;95311.16;5006670;28;20095;-53
2022/06/18 20:59:43;;;;;;;14.73;3.42;;;25.20;44.30;;;21.68;58.50;95317.22;4972833;28;20029;-50
2022/06/18 21:02:30;;;;;;;14.93;3.42;;;25.10;44.60;;;21.49;58.86;95318.59;4973681;28;20164;-54
2022/06/18 21:05:00;;;;;;;16.95;3.53;;;25.00;44.90;;;21.39;59.16;95316.34;4957221;28;20042;-49
2022/06/18 21:07:31;;;;;;;14.95;3.35;;;24.90;45.00;;;21.36;59.35;95316.25;4971597;28;20071;-52
2022/06/18 21:09:58;;;;;;;14.87;3.97;;;24.80;45.20;;;21.27;60.97;95321.75;4988891;28;20042;-52
2022/06/18 21:12:28;;;;;;;15.85;3.50;;;24.80;45.60;;;21.18;60.09;95311.03;4974053;28;20033;-48
2022/06/18 21:14:56;;;;;;;15.07;3.80;;;24.70;45.90;;;21.14;60.02;95312.84;4988492;28;20547;-46
2022/06/18 21:17:23;;;;;;;12.38;3.30;;;24.60;46.10;;;21.12;59.64;95304.28;4970919;28;20046;-50
2022/06/18 21:19:49;;;;;;;12.05;3.75;;;24.50;46.20;;;21.12;60.36;95304.28;4981282;28;20015;-46
2022/06/18 21:22:18;;;;;;;14.18;3.10;;;24.50;46.50;;;21.12;60.82;95306.16;4976382;28;20071;-47
2022/06/18 21:24:46;;;;;;;17.58;3.50;;;24.50;46.80;;;21.07;60.70;95298.28;4978423;28;20449;-46
2022/06/18 21:27:19;;;;;;;12.98;3.20;;;24.40;47.00;;;20.99;61.15;95300.75;4973054;28;20022;-46
2022/06/18 21:29:46;;;;;;;18.27;3.22;;;24.40;47.30;;;20.77;61.95;95299.25;4969109;28;20118;-46
